createdAt,value
2018-04-29T00:01:37.462Z,15.70
2018-04-29T00:04:03.748Z,15.70
2018-04-29T00:06:29.858Z,15.70
2018-04-29T00:08:55.961Z,15.80
2018-04-29T00:11:22.814Z,15.80
2018-04-29T00:13:49.658Z,15.80
2018-04-29T00:16:16.554Z,15.90
2018-04-29T00:18:42.643Z,15.90
2018-04-29T00:21:08.784Z,16.00
2018-04-29T00:23:34.902Z,16.00
2018-04-29T00:26:00.995Z,15.90
2018-04-29T00:28:27.091Z,15.90
2018-04-29T00:30:53.169Z,15.90
2018-04-29T00:33:19.990Z,15.80
2018-04-29T00:35:46.114Z,15.80
2018-04-29T00:38:12.187Z,15.80
2018-04-29T00:40:39.005Z,15.60
2018-04-29T00:43:05.103Z,15.60
2018-04-29T00:45:31.167Z,15.60
2018-04-29T00:47:57.295Z,15.50
2018-04-29T00:50:23.408Z,15.50
2018-04-29T00:52:50.231Z,15.30
2018-04-29T00:55:16.370Z,15.20
2018-04-29T00:57:42.665Z,15.10
2018-04-29T01:00:08.808Z,15.00
2018-04-29T01:02:34.978Z,14.90
2018-04-29T01:05:01.093Z,14.80
2018-04-29T01:07:27.200Z,14.60
2018-04-29T01:09:53.278Z,14.50
2018-04-29T01:12:19.444Z,14.40
2018-04-29T01:14:45.522Z,14.30
2018-04-29T01:17:11.596Z,14.30
2018-04-29T01:19:37.707Z,14.30
2018-04-29T01:22:03.787Z,14.20
2018-04-29T01:24:29.878Z,14.10
2018-04-29T01:26:55.972Z,13.90
2018-04-29T01:29:22.070Z,14.00
2018-04-29T01:31:48.244Z,14.00
2018-04-29T01:34:14.313Z,13.90
2018-04-29T01:36:40.429Z,14.00
2018-04-29T01:39:06.515Z,14.20
2018-04-29T01:41:32.768Z,14.10
2018-04-29T01:43:58.866Z,14.10
2018-04-29T01:46:24.943Z,14.20
2018-04-29T01:48:51.044Z,14.30
2018-04-29T01:51:17.111Z,14.40
2018-04-29T01:53:43.190Z,14.60
2018-04-29T01:56:09.290Z,14.70
2018-04-29T01:58:35.390Z,14.80
2018-04-29T02:01:02.223Z,15.00
2018-04-29T02:03:28.322Z,15.00
2018-04-29T02:05:54.398Z,15.00
2018-04-29T02:08:20.531Z,15.10
2018-04-29T02:10:46.606Z,15.10
2018-04-29T02:13:12.728Z,15.10
2018-04-29T02:15:39.602Z,15.20
2018-04-29T02:18:05.679Z,15.10
2018-04-29T02:20:31.787Z,15.20
2018-04-29T02:22:57.904Z,15.20
2018-04-29T02:25:24.006Z,15.10
2018-04-29T02:27:50.119Z,15.00
2018-04-29T02:30:16.193Z,14.90
2018-04-29T02:32:43.023Z,14.80
2018-04-29T02:35:09.135Z,14.80
2018-04-29T02:37:35.228Z,14.70
2018-04-29T02:40:02.080Z,14.50
2018-04-29T02:42:28.935Z,14.50
2018-04-29T02:44:55.752Z,14.50
2018-04-29T02:47:21.929Z,14.50
2018-04-29T02:49:48.836Z,14.70
2018-04-29T02:52:14.898Z,14.60
2018-04-29T02:54:40.992Z,14.70
2018-04-29T02:57:07.086Z,14.80
2018-04-29T02:59:33.918Z,14.90
2018-04-29T03:02:00.008Z,14.90
2018-04-29T03:04:26.115Z,14.90
2018-04-29T03:06:52.233Z,14.80
2018-04-29T03:09:18.300Z,14.80
2018-04-29T03:11:45.113Z,14.80
2018-04-29T03:14:11.339Z,14.70
2018-04-29T03:16:37.403Z,14.70
2018-04-29T03:19:03.509Z,14.70
2018-04-29T03:21:29.597Z,14.60
2018-04-29T03:23:55.699Z,14.50
2018-04-29T03:26:21.804Z,14.40
2018-04-29T03:28:47.870Z,14.40
2018-04-29T03:31:13.988Z,14.30
2018-04-29T03:33:40.046Z,14.20
2018-04-29T03:36:06.133Z,14.20
2018-04-29T03:38:32.235Z,14.20
2018-04-29T03:40:58.319Z,14.10
2018-04-29T03:43:25.139Z,14.10
2018-04-29T03:45:51.254Z,14.10
2018-04-29T03:48:17.337Z,14.10
2018-04-29T03:50:44.164Z,13.90
2018-04-29T03:53:10.252Z,13.90
2018-04-29T03:55:36.332Z,13.80
2018-04-29T04:01:15.793Z,13.60
2018-04-29T04:03:51.937Z,13.60
2018-04-29T04:06:18.757Z,13.60
2018-04-29T04:08:44.876Z,13.60
2018-04-29T04:11:11.004Z,13.70
2018-04-29T04:13:37.088Z,13.80
2018-04-29T04:16:03.216Z,14.00
2018-04-29T04:18:29.327Z,13.90
2018-04-29T04:20:55.406Z,14.00
2018-04-29T04:23:21.465Z,14.10
2018-04-29T04:25:47.578Z,14.20
2018-04-29T04:28:13.658Z,14.30
2018-04-29T04:30:39.725Z,14.40
2018-04-29T04:33:05.836Z,14.40
2018-04-29T04:35:31.903Z,14.40
2018-04-29T04:37:57.974Z,14.50
2018-04-29T04:40:24.854Z,14.60
2018-04-29T04:42:50.950Z,14.60
2018-04-29T04:45:17.041Z,14.70
2018-04-29T04:47:43.138Z,14.80
2018-04-29T04:50:09.950Z,14.80
2018-04-29T04:52:36.026Z,14.80
2018-04-29T04:55:02.876Z,14.80
2018-04-29T04:57:28.952Z,14.80
2018-04-29T04:59:55.034Z,14.80
2018-04-29T05:02:21.144Z,14.80
2018-04-29T05:04:47.225Z,14.80
2018-04-29T05:07:13.329Z,14.70
2018-04-29T05:09:39.413Z,14.70
2018-04-29T05:12:06.253Z,14.60
2018-04-29T05:14:32.342Z,14.60
2018-04-29T05:16:58.468Z,14.70
2018-04-29T05:19:24.943Z,14.80
2018-04-29T05:21:51.029Z,15.00
2018-04-29T05:24:17.863Z,15.50
2018-04-29T05:26:43.958Z,15.40
2018-04-29T05:29:10.055Z,15.80
2018-04-29T05:31:36.926Z,16.20
2018-04-29T05:34:03.003Z,16.20
2018-04-29T05:36:29.086Z,16.30
2018-04-29T05:38:55.928Z,16.80
2018-04-29T05:41:22.004Z,16.70
2018-04-29T05:43:48.117Z,17.00
2018-04-29T05:46:14.948Z,17.20
2018-04-29T05:48:41.031Z,17.20
2018-04-29T05:51:07.161Z,17.40
2018-04-29T05:53:33.238Z,17.40
2018-04-29T05:55:59.345Z,17.50
2018-04-29T05:58:25.465Z,17.60
2018-04-29T06:00:52.284Z,18.10
2018-04-29T06:03:18.406Z,18.10
2018-04-29T06:05:44.521Z,18.40
2018-04-29T06:08:10.685Z,18.60
2018-04-29T06:10:36.754Z,18.80
2018-04-29T06:13:02.842Z,18.90
2018-04-29T06:15:28.939Z,18.70
2018-04-29T06:17:55.785Z,19.10
2018-04-29T06:20:21.960Z,19.10
2018-04-29T06:22:48.746Z,20.00
2018-04-29T06:25:14.818Z,19.90
2018-04-29T06:27:41.685Z,20.70
2018-04-29T06:30:08.509Z,20.80
2018-04-29T06:32:34.662Z,20.80
2018-04-29T06:35:00.735Z,20.80
2018-04-29T06:37:26.801Z,21.10
2018-04-29T06:39:52.912Z,21.10
2018-04-29T06:42:19.005Z,21.30
2018-04-29T06:44:45.849Z,21.70
2018-04-29T06:47:11.960Z,21.60
2018-04-29T06:49:38.034Z,20.80
2018-04-29T06:52:04.132Z,20.40
2018-04-29T06:54:30.237Z,20.90
2018-04-29T06:56:56.332Z,21.80
2018-04-29T06:59:22.432Z,22.10
2018-04-29T07:01:48.546Z,22.10
2018-04-29T07:04:15.393Z,20.90
2018-04-29T07:06:41.520Z,20.90
2018-04-29T07:09:07.631Z,20.70
2018-04-29T07:11:33.716Z,20.50
2018-04-29T07:13:59.833Z,20.40
2018-04-29T07:16:26.070Z,20.10
2018-04-29T07:18:52.184Z,20.10
2018-04-29T07:21:18.266Z,20.00
2018-04-29T07:23:45.169Z,19.60
2018-04-29T07:26:11.409Z,19.50
2018-04-29T07:28:37.547Z,19.80
2018-04-29T07:31:03.640Z,19.80
2018-04-29T07:33:30.456Z,20.70
2018-04-29T07:35:56.611Z,20.70
2018-04-29T07:38:23.436Z,21.60
2018-04-29T07:40:49.509Z,21.60
2018-04-29T07:43:15.682Z,22.00
2018-04-29T07:45:41.781Z,22.50
2018-04-29T07:48:07.854Z,23.40
2018-04-29T07:50:33.955Z,23.20
2018-04-29T07:53:00.055Z,23.10
2018-04-29T07:55:26.152Z,23.00
2018-04-29T07:57:52.262Z,22.60
2018-04-29T08:00:18.352Z,22.50
2018-04-29T08:02:44.463Z,22.60
2018-04-29T08:05:11.318Z,23.50
2018-04-29T08:07:38.158Z,24.30
2018-04-29T08:10:04.295Z,24.30
2018-04-29T08:12:31.141Z,24.10
2018-04-29T08:14:57.238Z,24.10
2018-04-29T08:17:23.389Z,24.20
2018-04-29T08:19:49.508Z,23.60
2018-04-29T08:22:15.639Z,23.30
2018-04-29T08:24:41.747Z,22.60
2018-04-29T08:27:08.588Z,22.10
2018-04-29T08:29:34.694Z,22.10
2018-04-29T08:32:00.763Z,21.90
2018-04-29T08:34:26.885Z,22.00
2018-04-29T08:36:52.993Z,21.70
2018-04-29T08:39:19.083Z,21.10
2018-04-29T08:41:45.191Z,20.40
2018-04-29T08:44:11.275Z,20.20
2018-04-29T08:46:38.109Z,19.90
2018-04-29T08:49:05.007Z,20.20
2018-04-29T08:51:31.082Z,20.20
2018-04-29T08:53:57.193Z,20.50
2018-04-29T08:56:23.323Z,21.10
2018-04-29T08:58:49.461Z,22.60
2018-04-29T09:01:15.572Z,22.80
2018-04-29T09:03:42.453Z,25.40
2018-04-29T09:06:08.552Z,25.40
2018-04-29T09:08:34.696Z,26.80
2018-04-29T09:11:01.512Z,27.90
2018-04-29T09:13:27.628Z,27.80
2018-04-29T09:15:53.725Z,26.60
2018-04-29T09:18:19.860Z,26.90
2018-04-29T09:20:46.776Z,29.20
2018-04-29T09:23:12.859Z,29.20
2018-04-29T09:25:39.746Z,28.20
2018-04-29T09:28:05.854Z,28.20
2018-04-29T09:30:32.676Z,28.90
2018-04-29T09:32:58.879Z,28.90
2018-04-29T09:35:24.946Z,29.80
2018-04-29T09:37:51.059Z,29.90
2018-04-29T09:40:17.193Z,29.90
2018-04-29T09:42:43.299Z,30.20
2018-04-29T09:45:10.104Z,29.60
2018-04-29T09:47:36.210Z,29.70
2018-04-29T09:50:02.311Z,29.90
2018-04-29T09:52:28.443Z,28.90
2018-04-29T09:54:54.550Z,28.90
2018-04-29T09:57:20.643Z,29.00
2018-04-29T09:59:47.525Z,29.10
2018-04-29T10:02:13.696Z,29.10
2018-04-29T10:04:39.799Z,29.90
2018-04-29T10:07:06.076Z,30.50
2018-04-29T10:09:32.359Z,30.40
2018-04-29T10:11:59.332Z,31.30
2018-04-29T10:14:25.447Z,31.30
2018-04-29T10:16:51.551Z,31.10
2018-04-29T10:19:17.635Z,29.30
2018-04-29T10:21:44.510Z,28.60
2018-04-29T10:24:10.634Z,28.60
2018-04-29T10:26:37.458Z,30.80
2018-04-29T10:29:03.576Z,30.80
2018-04-29T10:31:29.704Z,30.80
2018-04-29T10:33:55.794Z,31.20
2018-04-29T10:36:22.635Z,31.60
2018-04-29T10:38:48.775Z,31.60
2018-04-29T10:41:14.869Z,32.10
2018-04-29T10:43:41.026Z,33.00
2018-04-29T10:46:07.148Z,32.00
2018-04-29T10:48:33.280Z,32.00
2018-04-29T10:50:59.374Z,32.50
2018-04-29T10:53:26.240Z,30.70
2018-04-29T10:55:52.368Z,30.70
2018-04-29T10:58:19.187Z,31.50
2018-04-29T11:00:45.318Z,31.50
2018-04-29T11:03:11.502Z,30.00
2018-04-29T11:05:37.670Z,29.90
2018-04-29T11:08:03.796Z,30.50
2018-04-29T11:10:29.908Z,31.50
2018-04-29T11:12:56.032Z,31.20
2018-04-29T11:15:22.167Z,31.70
2018-04-29T11:17:55.288Z,30.40
2018-04-29T11:20:22.146Z,31.80
2018-04-29T11:22:48.291Z,31.80
2018-04-29T11:25:15.118Z,30.40
2018-04-29T11:27:41.236Z,30.40
2018-04-29T11:30:07.550Z,30.30
2018-04-29T11:32:33.719Z,30.50
2018-04-29T11:34:59.838Z,31.20
2018-04-29T11:37:25.910Z,32.50
2018-04-29T11:39:51.996Z,32.70
2018-04-29T11:42:33.118Z,32.50
2018-04-29T11:44:59.186Z,31.10
2018-04-29T11:47:25.273Z,31.70
2018-04-29T15:24:44.376Z,32.30
2018-04-29T15:27:10.495Z,28.70
2018-04-29T15:29:36.607Z,28.30
2018-04-29T15:32:03.409Z,27.80
2018-04-29T15:34:29.532Z,27.80
2018-04-29T15:36:55.607Z,27.80
2018-04-29T15:39:21.678Z,27.90
2018-04-29T15:41:48.564Z,27.90
2018-04-29T15:44:14.652Z,27.90
2018-04-29T15:46:40.753Z,27.60
2018-04-29T15:49:06.916Z,27.70
2018-04-29T15:51:33.008Z,27.30
2018-04-29T15:53:59.120Z,26.80
2018-04-29T15:56:25.997Z,26.30
2018-04-29T15:58:52.136Z,26.30
2018-04-29T16:01:18.230Z,26.10
2018-04-29T16:03:44.377Z,25.80
2018-04-29T16:06:10.483Z,25.60
2018-04-29T16:08:36.570Z,25.40
2018-04-29T16:11:03.452Z,25.40
2018-04-29T16:13:29.583Z,25.30
2018-04-29T16:15:55.702Z,25.00
2018-04-29T16:18:21.807Z,25.10
2018-04-29T16:20:47.915Z,25.10
2018-04-29T16:23:14.008Z,25.00
2018-04-29T16:25:40.183Z,24.90
2018-04-29T16:28:06.298Z,24.70
2018-04-29T16:30:33.184Z,24.70
2018-04-29T16:32:59.315Z,24.70
2018-04-29T16:35:25.432Z,24.60
2018-04-29T16:37:51.655Z,24.60
2018-04-29T16:40:17.750Z,24.50
2018-04-29T16:42:43.902Z,24.40
2018-04-29T16:45:10.026Z,24.30
2018-04-29T16:47:36.160Z,24.20
2018-04-29T16:50:02.256Z,24.00
2018-04-29T16:52:29.188Z,24.00
2018-04-29T16:54:55.361Z,24.00
2018-04-29T16:57:22.205Z,24.00
2018-04-29T16:59:49.046Z,24.00
2018-04-29T17:02:15.161Z,23.90
2018-04-29T17:04:41.247Z,23.90
2018-04-29T17:07:07.413Z,23.90
2018-04-29T17:09:33.632Z,23.70
2018-04-29T17:11:59.683Z,23.60
2018-04-29T17:14:25.782Z,23.50
2018-04-29T17:16:51.947Z,23.50
2018-04-29T17:19:18.111Z,23.50
2018-04-29T17:21:44.187Z,23.30
2018-04-29T17:24:10.298Z,23.30
2018-04-29T17:26:38.184Z,23.30
2018-04-29T17:29:05.225Z,23.20
2018-04-29T17:31:31.692Z,23.10
2018-04-29T17:33:57.988Z,23.00
2018-04-29T17:36:25.941Z,23.00
2018-04-29T17:38:52.361Z,22.90
2018-04-29T17:41:18.878Z,22.80
2018-04-29T17:43:44.978Z,22.80
2018-04-29T17:46:11.812Z,22.50
2018-04-29T17:48:37.924Z,22.50
2018-04-29T17:51:04.051Z,22.40
2018-04-29T17:53:30.169Z,22.40
2018-04-29T17:55:56.264Z,22.30
2018-04-29T17:58:22.382Z,22.20
2018-04-29T18:00:48.492Z,22.10
2018-04-29T18:03:14.593Z,22.00
2018-04-29T18:05:41.466Z,21.90
2018-04-29T18:08:08.350Z,21.90
2018-04-29T18:10:34.427Z,21.80
2018-04-29T18:13:00.548Z,21.80
2018-04-29T18:15:26.672Z,21.70
2018-04-29T18:17:52.790Z,21.60
2018-04-29T18:20:18.874Z,21.60
2018-04-29T18:22:45.748Z,21.40
2018-04-29T18:25:11.939Z,21.40
2018-04-29T18:27:38.094Z,21.30
2018-04-29T18:30:04.157Z,21.30
2018-04-29T18:32:30.236Z,21.20
2018-04-29T18:34:56.382Z,21.10
2018-04-29T18:37:22.918Z,21.10
2018-04-29T18:39:49.002Z,21.00
2018-04-29T18:42:15.877Z,20.90
2018-04-29T18:44:41.961Z,20.90
2018-04-29T18:47:08.265Z,20.80
2018-04-29T18:49:34.364Z,20.70
2018-04-29T18:52:00.436Z,20.70
2018-04-29T18:54:26.518Z,20.60
2018-04-29T18:56:52.718Z,20.50
2018-04-29T18:59:18.798Z,20.50
2018-04-29T19:01:44.864Z,20.50
2018-04-29T19:04:10.996Z,20.50
2018-04-29T19:06:37.837Z,20.40
2018-04-29T19:09:04.650Z,20.40
2018-04-29T19:11:30.764Z,20.30
2018-04-29T19:13:56.854Z,20.30
2018-04-29T19:16:22.910Z,20.20
2018-04-29T19:18:49.018Z,20.10
2018-04-29T19:21:15.069Z,20.10
2018-04-29T19:23:41.157Z,20.00
2018-04-29T19:26:07.259Z,20.00
2018-04-29T19:28:33.346Z,20.00
2018-04-29T19:30:59.436Z,19.90
2018-04-29T19:33:26.700Z,19.80
2018-04-29T19:35:52.799Z,19.80
2018-04-29T19:38:18.912Z,19.80
2018-04-29T19:40:45.085Z,19.80
2018-04-29T19:43:11.173Z,19.70
2018-04-29T19:45:37.978Z,19.60
2018-04-29T19:48:04.119Z,19.60
2018-04-29T19:50:30.298Z,19.60
2018-04-29T19:52:57.164Z,19.50
2018-04-29T19:55:23.283Z,19.40
2018-04-29T19:57:50.157Z,19.30
2018-04-29T20:00:16.263Z,19.30
2018-04-29T20:02:42.412Z,19.30
2018-04-29T20:05:09.247Z,19.10
2018-04-29T20:07:35.302Z,19.10
2018-04-29T20:10:01.803Z,19.20
2018-04-29T20:12:27.893Z,19.10
2018-04-29T20:14:54.776Z,19.00
2018-04-29T20:17:20.874Z,19.00
2018-04-29T20:19:46.972Z,19.00
2018-04-29T20:22:13.084Z,19.00
2018-04-29T20:24:39.187Z,19.00
2018-04-29T20:27:05.312Z,18.90
2018-04-29T20:29:31.444Z,18.90
2018-04-29T20:31:57.510Z,18.90
2018-04-29T20:34:24.458Z,18.80
2018-04-29T20:36:50.575Z,18.80
2018-04-29T20:39:16.668Z,18.80
2018-04-29T20:41:42.819Z,18.70
2018-04-29T20:44:08.963Z,18.70
2018-04-29T20:46:35.100Z,18.60
2018-04-29T20:49:01.319Z,18.60
2018-04-29T20:51:27.437Z,18.50
2018-04-29T20:53:54.340Z,18.40
2018-04-29T20:56:20.462Z,18.40
2018-04-29T20:58:46.550Z,18.40
2018-04-29T21:01:12.623Z,18.40
2018-04-29T21:03:38.786Z,18.30
2018-04-29T21:06:04.862Z,18.20
2018-04-29T21:08:30.945Z,18.30
2018-04-29T21:10:57.075Z,18.20
2018-04-29T21:13:23.887Z,18.20
2018-04-29T21:15:50.010Z,18.10
2018-04-29T21:18:16.218Z,18.10
2018-04-29T21:20:42.614Z,18.10
2018-04-29T21:23:09.522Z,18.00
2018-04-29T21:25:35.628Z,17.90
2018-04-29T21:28:02.450Z,17.90
2018-04-29T21:30:28.557Z,17.90
2018-04-29T21:32:54.665Z,17.90
2018-04-29T21:35:21.471Z,17.80
2018-04-29T21:37:47.531Z,17.80
2018-04-29T21:40:13.636Z,17.80
2018-04-29T21:42:39.776Z,17.80
2018-04-29T21:45:05.847Z,17.80
2018-04-29T21:47:31.994Z,17.70
2018-04-29T21:49:58.075Z,17.70
2018-04-29T21:52:24.189Z,17.70
2018-04-29T21:54:51.019Z,17.70
2018-04-29T21:57:17.236Z,17.60
2018-04-29T21:59:43.322Z,17.70
2018-04-29T22:02:09.486Z,17.60
2018-04-29T22:04:35.568Z,17.60
2018-04-29T22:07:02.404Z,17.50
2018-04-29T22:09:28.485Z,17.50
2018-04-29T22:11:55.286Z,17.40
2018-04-29T22:14:21.377Z,17.40
2018-04-29T22:16:48.225Z,17.40
2018-04-29T22:19:15.187Z,17.40
2018-04-29T22:21:42.058Z,17.40
2018-04-29T22:24:08.167Z,17.30
2018-04-29T22:26:34.320Z,17.30
2018-04-29T22:29:01.142Z,17.20
2018-04-29T22:31:27.269Z,17.20
2018-04-29T22:33:53.326Z,17.10
2018-04-29T22:36:19.445Z,17.10
2018-04-29T22:38:45.537Z,17.10
2018-04-29T22:41:11.825Z,17.00
2018-04-29T22:43:37.986Z,17.00
2018-04-29T22:46:04.167Z,16.90
2018-04-29T22:48:30.303Z,17.00
2018-04-29T22:50:56.511Z,16.80
2018-04-29T22:53:22.585Z,16.90
2018-04-29T22:55:48.854Z,16.80
2018-04-29T22:58:14.964Z,16.80
2018-04-29T23:00:41.084Z,16.80
2018-04-29T23:03:08.019Z,16.70
2018-04-29T23:05:34.231Z,16.70
2018-04-29T23:08:00.777Z,16.70
2018-04-29T23:21:52.104Z,16.50
2018-04-29T23:24:18.211Z,16.50
2018-04-29T23:26:45.081Z,16.50
2018-04-29T23:29:11.932Z,16.50
2018-04-29T23:31:38.783Z,16.40
2018-04-29T23:34:05.620Z,16.40
2018-04-29T23:36:31.813Z,16.40
2018-04-29T23:38:57.929Z,16.40
2018-04-29T23:41:24.076Z,16.40
2018-04-29T23:43:50.183Z,16.40
2018-04-29T23:46:16.278Z,16.50
2018-04-29T23:48:42.548Z,16.50
2018-04-29T23:51:08.645Z,16.40
2018-04-29T23:53:34.749Z,16.40
2018-04-29T23:56:01.582Z,16.40
2018-04-29T23:58:27.691Z,16.30
